Time;durP1;ratioP1;P1;durP2;ratioP2;P2;SDS_P1;SDS_P2;PMS_P1;PMS_P2;Temp;Humidity;BMP_temperature;BMP_pressure;BME280_temperature;BME280_humidity;BME280_pressure;Samples;Min_cycle;Max_cycle;Signal;HPM_P1;HPM_P2
2023/10/03 00:24:29;;;;;;;8.90;5.60;;;;;;;11.18;84.45;97802.29;105399;1267;99487;-78
2023/10/03 00:27:37;;;;;;;10.50;6.40;;;;;;;11.10;84.71;97800.95;105546;1267;101426;-78
2023/10/03 00:30:33;;;;;;;10.20;5.90;;;;;;;11.09;84.93;97800.78;105892;1257;99388;-80
2023/10/03 00:33:30;;;;;;;9.40;5.50;;;;;;;11.09;85.06;97800.63;105809;1257;96604;-83
2023/10/03 00:36:33;;;;;;;9.40;5.10;;;;;;;11.10;85.20;97794.30;105827;1259;95951;-83
2023/10/03 00:39:41;;;;;;;10.50;6.10;;;;;;;11.07;85.23;97788.77;105096;1266;100736;-83
2023/10/03 01:20:23;;;;;;;12.20;5.40;;;;;;;11.26;85.64;97771.91;106257;1264;94366;-86
2023/10/03 01:23:33;;;;;;;9.50;5.10;;;;;;;11.20;85.78;97766.52;105833;1255;97127;-87
2023/10/03 01:26:40;;;;;;;10.00;5.20;;;;;;;11.18;85.75;97761.14;105162;1266;99440;-88
2023/10/03 01:29:40;;;;;;;9.80;5.40;;;;;;;11.13;85.79;97756.27;104349;1275;101769;-81
2023/10/03 02:43:51;;;;;;;9.00;5.50;;;;;;;11.13;86.70;97700.20;105837;1262;96321;-89
2023/10/03 02:46:58;;;;;;;10.20;5.80;;;;;;;11.17;86.72;97696.75;106342;1256;99699;-84
2023/10/03 02:50:05;;;;;;;9.30;5.70;;;;;;;11.21;86.68;97696.55;105248;1266;100972;-86
2023/10/03 02:53:19;;;;;;;9.40;5.70;;;;;;;11.24;86.62;97699.20;104697;1268;99232;-82
2023/10/03 03:15:22;;;;;;;10.60;6.00;;;;;;;11.39;86.49;97685.00;101071;1298;637624;-82
2023/10/03 03:18:31;;;;;;;9.10;6.30;;;;;;;11.38;86.47;97684.21;104159;1268;96048;-78
2023/10/03 03:21:40;;;;;;;7.90;5.40;;;;;;;11.38;86.49;97678.10;104299;1270;95841;-77
2023/10/03 03:24:51;;;;;;;8.00;5.70;;;;;;;11.39;86.51;97677.61;103289;1274;99776;-85
2023/10/03 03:28:00;;;;;;;10.60;5.60;;;;;;;11.37;86.32;97677.31;99837;1283;5383001;-81
2023/10/03 04:33:33;;;;;;;11.00;6.30;;;;;;;10.82;85.80;97648.50;105070;1267;99569;-78
2023/10/03 04:36:32;;;;;;;11.20;7.10;;;;;;;10.79;85.81;97650.55;106685;1247;100231;-77
2023/10/03 04:39:20;;;;;;;15.40;7.50;;;;;;;10.75;85.94;97649.15;106628;1262;99798;-85
2023/10/03 04:42:14;;;;;;;14.30;7.60;;;;;;;10.73;85.99;97644.88;106505;1252;95911;-83
2023/10/03 04:45:14;;;;;;;20.30;6.60;;;;;;;10.71;85.85;97641.55;106560;1248;95863;-81
2023/10/03 04:48:22;;;;;;;16.40;7.30;;;;;;;10.70;85.89;97641.01;106005;1258;99661;-78
2023/10/03 04:50:51;;;;;;;15.60;7.80;;;;;;;10.68;85.75;97643.73;104976;1267;100422;-80
2023/10/03 04:53:58;;;;;;;15.40;7.50;;;;;;;10.63;85.73;97644.81;105024;1277;99935;-79
2023/10/03 04:56:56;;;;;;;13.50;7.10;;;;;;;10.55;85.77;97644.43;104573;1272;96848;-77
2023/10/03 04:59:25;;;;;;;15.50;8.40;;;;;;;10.53;85.95;97643.46;104199;1277;96015;-81
2023/10/03 05:02:32;;;;;;;21.20;9.20;;;;;;;10.56;86.26;97642.27;104786;1267;100950;-82
2023/10/03 05:05:26;;;;;;;20.30;8.60;;;;;;;10.57;86.30;97644.85;104408;1283;99976;-83
2023/10/03 05:08:15;;;;;;;19.20;8.50;;;;;;;10.57;86.30;97646.67;104350;1273;99931;-82
2023/10/03 06:25:58;;;;;;;18.70;8.60;;;;;;;12.02;88.72;97616.17;105486;1265;96348;-85
2023/10/03 06:28:48;;;;;;;18.00;8.50;;;;;;;12.11;88.91;97616.17;106115;1260;99857;-85
2023/10/03 06:31:55;;;;;;;18.00;8.30;;;;;;;12.21;88.93;97612.83;105513;1272;100254;-78
2023/10/03 06:35:02;;;;;;;15.60;9.10;;;;;;;12.34;88.99;97617.20;104962;1269;98986;-86
2023/10/03 06:38:08;;;;;;;18.80;9.50;;;;;;;12.47;88.98;97617.55;104457;1272;96243;-83
2023/10/03 08:17:44;;;;;;;5.40;4.00;;;;;;;21.45;68.29;97557.35;105742;1265;98349;-81
2023/10/03 08:20:53;;;;;;;6.80;4.30;;;;;;;21.53;67.27;97558.86;106675;1251;96782;-84
2023/10/03 08:23:51;;;;;;;6.50;4.00;;;;;;;21.54;66.72;97551.73;105931;1258;96033;-83
2023/10/03 08:26:59;;;;;;;7.60;4.10;;;;;;;21.55;65.91;97552.05;105428;1273;99791;-85
2023/10/03 08:30:06;;;;;;;8.00;3.70;;;;;;;21.66;65.66;97544.17;105545;1263;100435;-86
2023/10/03 08:32:49;;;;;;;8.60;4.40;;;;;;;21.82;65.34;97538.58;104391;1275;97631;-84
2023/10/03 09:02:05;;;;;;;8.70;4.70;;;;;;;23.45;57.70;97507.55;105069;1263;638867;-83
2023/10/03 09:05:15;;;;;;;8.20;4.90;;;;;;;23.87;55.65;97504.45;102895;1251;5392057;-81
2023/10/03 09:08:08;;;;;;;8.50;4.50;;;;;;;23.93;56.06;97500.35;106148;1254;98425;-86
2023/10/03 09:10:52;;;;;;;7.00;4.70;;;;;;;24.02;56.38;97496.21;105403;1273;100252;-88
2023/10/03 09:13:39;;;;;;;9.80;4.70;;;;;;;24.12;56.47;97493.72;105270;1275;98984;-93
2023/10/03 09:16:38;;;;;;;8.40;4.90;;;;;;;24.19;56.09;97492.14;104807;1272;95891;-82
2023/10/03 09:20:04;;;;;;;7.20;4.60;;;;;;;24.21;55.88;97494.54;104177;1280;95961;-82
2023/10/03 09:23:17;;;;;;;6.80;4.30;;;;;;;24.15;55.61;97489.31;103952;1278;98558;-80
2023/10/03 09:54:38;;;;;;;6.50;4.50;;;;;;;24.48;54.83;97449.65;103874;1283;96112;-87
2023/10/03 09:59:49;;;;;;;10.30;4.80;;;;;;;24.57;54.33;97448.44;105429;1263;100081;-83
2023/10/03 10:02:18;;;;;;;8.20;4.80;;;;;;;24.63;54.47;97448.02;105843;1266;101426;-80
2023/10/03 10:04:48;;;;;;;6.40;4.60;;;;;;;24.72;54.34;97441.78;105722;1259;98663;-80
2023/10/03 10:07:29;;;;;;;9.70;4.70;;;;;;;24.85;54.34;97438.42;106552;1261;96021;-79
2023/10/03 10:10:07;;;;;;;6.30;4.40;;;;;;;24.88;53.92;97435.30;106604;1246;96040;-79
2023/10/03 10:12:38;;;;;;;8.20;4.20;;;;;;;24.93;54.03;97431.04;106958;1248;100567;-79
2023/10/03 10:15:17;;;;;;;7.40;4.60;;;;;;;25.02;54.39;97426.78;107397;1242;101263;-80
2023/10/03 10:17:54;;;;;;;7.00;5.20;;;;;;;25.07;54.10;97421.78;107374;1252;99931;-80
2023/10/03 10:20:32;;;;;;;7.60;4.20;;;;;;;25.15;54.28;97421.50;107210;1245;95915;-80
2023/10/03 10:22:59;;;;;;;7.00;4.60;;;;;;;25.25;53.84;97412.44;106923;1248;95946;-80
2023/10/03 10:25:41;;;;;;;6.60;4.30;;;;;;;25.31;53.33;97403.88;107369;1241;96090;-80
2023/10/03 10:28:17;;;;;;;8.00;4.30;;;;;;;25.38;53.49;97394.50;107196;1246;101524;-80
2023/10/03 10:31:21;;;;;;;11.00;4.60;;;;;;;25.48;53.30;97394.94;107183;1253;100118;-79
2023/10/03 10:33:50;;;;;;;7.60;4.10;;;;;;;25.61;52.92;97388.57;107503;1242;96788;-80
2023/10/03 10:36:18;;;;;;;8.60;4.30;;;;;;;25.67;52.59;97386.46;110690;1239;93757;-81
2023/10/03 10:38:45;;;;;;;8.00;4.40;;;;;;;25.73;52.27;97386.27;109767;1241;100728;-80
2023/10/03 10:41:11;;;;;;;5.60;4.00;;;;;;;25.86;52.24;97384.83;107826;1242;96461;-80
2023/10/03 10:44:09;;;;;;;8.10;4.80;;;;;;;25.93;51.50;97380.04;107795;1242;95811;-79
2023/10/03 10:46:43;;;;;;;9.90;5.00;;;;;;;25.99;51.14;97379.73;107817;1241;95847;-88
2023/10/03 10:49:31;;;;;;;8.10;5.10;;;;;;;26.04;50.53;97379.72;107525;1240;96040;-83
2023/10/03 10:52:09;;;;;;;10.80;4.40;;;;;;;26.05;49.82;97375.23;107467;1242;99887;-86
2023/10/03 10:54:42;;;;;;;7.50;4.90;;;;;;;26.02;49.09;97372.14;107408;1251;101297;-85
2023/10/03 10:57:11;;;;;;;11.30;5.30;;;;;;;25.95;48.34;97365.35;107190;1245;100066;-87
2023/10/03 10:59:40;;;;;;;10.60;5.30;;;;;;;25.91;48.40;97360.50;107327;1241;96836;-86
2023/10/03 11:02:19;;;;;;;9.00;4.90;;;;;;;25.94;48.41;97359.16;107450;1244;96718;-79
2023/10/03 11:04:56;;;;;;;8.40;5.10;;;;;;;26.04;48.97;97357.94;107473;1240;100916;-78
2023/10/03 11:07:24;;;;;;;7.60;4.90;;;;;;;26.13;48.72;97358.59;107397;1240;101230;-77
2023/10/03 11:09:55;;;;;;;8.60;5.00;;;;;;;26.12;47.96;97356.17;107253;1253;97189;-77
2023/10/03 11:12:26;;;;;;;8.10;4.90;;;;;;;26.06;47.61;97346.05;107484;1245;95867;-76
2023/10/03 11:14:56;;;;;;;10.40;4.90;;;;;;;26.09;47.63;97345.02;107273;1245;97102;-76
2023/10/03 11:17:25;;;;;;;10.70;5.30;;;;;;;26.14;48.15;97344.90;107379;1242;100800;-84
2023/10/03 11:19:53;;;;;;;8.40;5.20;;;;;;;26.22;47.86;97343.83;107345;1242;100269;-85
2023/10/03 11:22:20;;;;;;;11.70;6.00;;;;;;;26.28;47.25;97348.75;107190;1252;99961;-85
2023/10/03 11:24:46;;;;;;;8.80;5.10;;;;;;;26.33;47.29;97348.08;107303;1248;96666;-77
2023/10/03 11:27:28;;;;;;;10.10;5.70;;;;;;;26.32;46.59;97348.23;107298;1243;96597;-77
2023/10/03 11:29:55;;;;;;;11.10;5.30;;;;;;;26.26;46.41;97344.19;107232;1245;99686;-76
2023/10/03 11:32:32;;;;;;;10.50;5.30;;;;;;;26.20;46.14;97342.13;107406;1242;96775;-84
2023/10/03 11:35:13;;;;;;;9.50;5.50;;;;;;;26.16;45.97;97341.09;107234;1245;99806;-88
2023/10/03 11:37:44;;;;;;;11.30;5.60;;;;;;;26.20;46.23;97332.89;107219;1253;96162;-82
2023/10/03 11:40:18;;;;;;;11.70;6.10;;;;;;;26.23;45.98;97332.53;107822;1240;95869;-82
2023/10/03 11:42:48;;;;;;;8.60;5.90;;;;;;;26.23;45.62;97325.56;107368;1248;100664;-76
2023/10/03 11:45:18;;;;;;;10.20;5.70;;;;;;;26.27;45.82;97323.65;107778;1240;101144;-76
2023/10/03 11:48:07;;;;;;;13.10;6.50;;;;;;;26.34;45.55;97319.57;107782;1242;107931;-75
2023/10/03 11:50:37;;;;;;;11.20;5.90;;;;;;;26.42;46.02;97320.80;107826;1239;95863;-76
2023/10/03 11:53:05;;;;;;;11.70;6.20;;;;;;;26.53;45.62;97322.02;107965;1239;97039;-75
2023/10/03 11:55:33;;;;;;;8.40;5.60;;;;;;;26.57;45.51;97321.48;107369;1251;100727;-77
2023/10/03 11:58:05;;;;;;;8.90;5.90;;;;;;;26.58;45.33;97315.78;107615;1242;101237;-76
2023/10/03 12:00:33;;;;;;;10.80;6.30;;;;;;;26.60;45.16;97318.33;108096;1239;98890;-76
2023/10/03 12:02:59;;;;;;;10.10;6.20;;;;;;;26.65;45.28;97315.89;108318;1237;96782;-85
2023/10/03 12:05:27;;;;;;;12.40;6.80;;;;;;;26.69;45.00;97312.78;107898;1245;95916;-79
2023/10/03 12:07:56;;;;;;;9.20;6.00;;;;;;;26.75;44.99;97308.74;107837;1239;96885;-79
2023/10/03 12:10:24;;;;;;;10.80;6.50;;;;;;;26.82;45.07;97301.93;107830;1248;101412;-79
2023/10/03 12:12:51;;;;;;;11.50;6.70;;;;;;;26.87;45.04;97301.77;107524;1243;100103;-81
2023/10/03 12:15:20;;;;;;;12.90;7.30;;;;;;;26.85;44.21;97299.64;107739;1243;95908;-86
2023/10/03 12:17:48;;;;;;;9.30;6.20;;;;;;;26.83;44.54;97293.34;107775;1249;95828;-83
2023/10/03 12:20:17;;;;;;;11.30;7.00;;;;;;;26.84;44.47;97292.76;107333;1243;108433;-79
2023/10/03 12:22:48;;;;;;;12.90;6.50;;;;;;;26.90;44.47;97289.11;107255;1242;101542;-77
2023/10/03 12:25:18;;;;;;;12.50;6.90;;;;;;;26.95;44.32;97288.98;107732;1249;100030;-77
2023/10/03 12:27:45;;;;;;;9.20;6.30;;;;;;;26.93;43.74;97286.95;107507;1237;96998;-76
2023/10/03 12:30:15;;;;;;;11.90;6.60;;;;;;;26.89;43.85;97280.15;107078;1247;95921;-76
2023/10/03 12:32:44;;;;;;;16.70;7.50;;;;;;;26.93;44.02;97281.80;107829;1239;100982;-76
2023/10/03 12:35:11;;;;;;;14.00;7.00;;;;;;;26.95;43.84;97278.81;107400;1240;101412;-76
2023/10/03 12:37:40;;;;;;;12.00;6.80;;;;;;;26.99;43.80;97272.61;107630;1240;95858;-79
2023/10/03 12:40:13;;;;;;;13.80;6.30;;;;;;;27.02;43.72;97269.44;107372;1242;97326;-84
2023/10/03 12:42:43;;;;;;;11.20;6.40;;;;;;;27.07;43.67;97262.96;107526;1241;95860;-82
2023/10/03 12:45:12;;;;;;;14.60;6.70;;;;;;;27.07;43.42;97255.76;107240;1245;99937;-82
2023/10/03 12:47:39;;;;;;;10.80;7.30;;;;;;;27.04;43.38;97249.96;107752;1241;100260;-81
2023/10/03 12:50:07;;;;;;;12.40;7.10;;;;;;;27.05;43.56;97243.11;107732;1239;100175;-81
2023/10/03 12:52:34;;;;;;;11.10;6.60;;;;;;;27.02;43.32;97241.94;107761;1239;96801;-81
2023/10/03 12:55:00;;;;;;;12.40;7.50;;;;;;;26.99;43.60;97238.11;107767;1241;96242;-81
2023/10/03 12:57:26;;;;;;;13.70;7.30;;;;;;;26.98;43.24;97228.27;107754;1239;97037;-83
2023/10/03 12:59:53;;;;;;;11.90;6.90;;;;;;;26.96;42.87;97226.16;107790;1240;96874;-78
2023/10/03 13:02:21;;;;;;;10.80;6.80;;;;;;;26.92;43.32;97229.23;107672;1242;95753;-76
2023/10/03 13:04:48;;;;;;;12.00;7.20;;;;;;;26.99;43.46;97229.24;107816;1239;96110;-76
2023/10/03 13:07:16;;;;;;;11.60;6.60;;;;;;;27.04;43.16;97228.16;107864;1240;95866;-77
2023/10/03 13:09:44;;;;;;;12.10;7.60;;;;;;;27.06;43.12;97225.19;107953;1248;101515;-77
2023/10/03 13:12:11;;;;;;;10.00;5.80;;;;;;;27.05;42.42;97226.72;107848;1239;99886;-76
2023/10/03 13:14:37;;;;;;;11.30;6.50;;;;;;;27.00;42.57;97225.44;107755;1251;97441;-76
2023/10/03 13:17:04;;;;;;;9.90;6.60;;;;;;;26.97;42.87;97218.38;107694;1241;96779;-76
2023/10/03 13:19:31;;;;;;;13.50;8.00;;;;;;;26.90;42.25;97214.50;107839;1241;96568;-76
2023/10/03 13:21:58;;;;;;;13.00;6.70;;;;;;;26.83;42.25;97214.92;107815;1240;100124;-76
2023/10/03 13:24:26;;;;;;;11.20;7.20;;;;;;;26.80;42.51;97213.84;107726;1247;96672;-76
2023/10/03 13:26:53;;;;;;;13.60;7.80;;;;;;;26.73;42.03;97212.38;107390;1250;96895;-75
2023/10/03 13:29:20;;;;;;;15.50;7.40;;;;;;;26.61;41.83;97210.17;107768;1248;97413;-75
2023/10/03 13:31:47;;;;;;;12.30;7.30;;;;;;;26.58;42.51;97213.68;107742;1239;96609;-86
2023/10/03 13:34:13;;;;;;;13.30;7.90;;;;;;;26.59;42.52;97213.23;107471;1243;97003;-80
2023/10/03 13:36:41;;;;;;;12.20;7.60;;;;;;;26.60;42.45;97215.13;107601;1244;97640;-83
2023/10/03 13:39:11;;;;;;;17.10;8.00;;;;;;;26.59;42.24;97213.95;107832;1246;96563;-81
2023/10/03 13:41:42;;;;;;;13.60;8.00;;;;;;;26.46;42.47;97208.27;107760;1247;101668;-81
2023/10/03 13:44:11;;;;;;;18.90;8.50;;;;;;;26.36;42.42;97206.63;107425;1251;100113;-85
2023/10/03 13:46:39;;;;;;;17.50;8.80;;;;;;;26.31;42.35;97206.92;107753;1240;96605;-80
2023/10/03 13:49:07;;;;;;;12.90;8.50;;;;;;;26.28;42.28;97199.24;107739;1250;97373;-82
2023/10/03 13:51:34;;;;;;;12.90;8.30;;;;;;;26.24;42.23;97197.66;107406;1250;102024;-82
2023/10/03 13:54:03;;;;;;;15.20;8.70;;;;;;;26.18;42.31;97196.60;107737;1243;96582;-81
2023/10/03 13:56:34;;;;;;;15.70;7.70;;;;;;;26.11;42.28;97203.98;107776;1248;100139;-82
2023/10/03 13:59:05;;;;;;;14.50;8.20;;;;;;;26.04;42.56;97203.94;107461;1242;98015;-82
2023/10/03 14:01:31;;;;;;;12.40;8.20;;;;;;;26.01;42.30;97199.36;107834;1245;97397;-76
2023/10/03 14:03:58;;;;;;;14.50;8.30;;;;;;;25.96;42.25;97198.77;107741;1241;96574;-78
2023/10/03 14:06:25;;;;;;;17.20;9.50;;;;;;;25.90;41.89;97209.45;107897;1242;97810;-76
2023/10/03 14:08:53;;;;;;;18.00;9.30;;;;;;;25.79;41.69;97205.84;107734;1240;96671;-77
2023/10/03 14:11:24;;;;;;;15.90;9.20;;;;;;;25.70;42.04;97202.75;107500;1251;96690;-76
2023/10/03 14:13:51;;;;;;;13.80;8.90;;;;;;;25.63;42.08;97200.30;107401;1244;96786;-77
2023/10/03 14:16:21;;;;;;;16.80;9.60;;;;;;;25.60;42.35;97199.21;107645;1241;102247;-75
2023/10/03 14:18:49;;;;;;;18.90;9.40;;;;;;;25.58;42.36;97201.92;107696;1243;101229;-75
2023/10/03 14:21:16;;;;;;;14.00;8.70;;;;;;;25.50;42.21;97201.75;107796;1247;100013;-76
2023/10/03 14:23:42;;;;;;;17.60;9.40;;;;;;;25.41;41.96;97198.69;107581;1251;96748;-76
2023/10/03 14:26:09;;;;;;;19.10;9.50;;;;;;;25.32;42.07;97200.00;107882;1239;97825;-76
2023/10/03 14:28:35;;;;;;;17.30;9.00;;;;;;;25.23;42.01;97198.29;107877;1241;96582;-77
2023/10/03 14:31:03;;;;;;;17.90;9.10;;;;;;;25.04;42.64;97191.86;107114;1246;100188;-84
2023/10/03 14:33:31;;;;;;;18.80;9.50;;;;;;;24.91;43.47;97189.98;107475;1242;97572;-84
2023/10/03 14:35:59;;;;;;;17.70;9.30;;;;;;;24.80;44.46;97193.66;107494;1250;97686;-80
2023/10/03 14:38:26;;;;;;;18.60;9.20;;;;;;;24.63;44.67;97194.33;107767;1242;102291;-79
2023/10/03 14:40:55;;;;;;;18.20;9.90;;;;;;;24.48;45.28;97192.77;107774;1251;99733;-80
2023/10/03 14:43:22;;;;;;;23.80;10.20;;;;;;;24.39;45.85;97199.56;107773;1250;98502;-80
2023/10/03 14:45:49;;;;;;;18.60;9.70;;;;;;;24.20;45.62;97197.15;107703;1239;97845;-84
2023/10/03 14:48:16;;;;;;;20.40;9.20;;;;;;;24.01;45.86;97195.16;107717;1240;96695;-84
2023/10/03 14:50:42;;;;;;;18.70;9.00;;;;;;;23.89;45.78;97193.83;107729;1249;96557;-84
2023/10/03 14:53:09;;;;;;;22.10;10.80;;;;;;;23.85;45.69;97189.16;107798;1240;97705;-85
2023/10/03 14:55:36;;;;;;;19.50;10.60;;;;;;;23.81;45.93;97186.85;107573;1240;97135;-83
2023/10/03 14:58:02;;;;;;;23.90;10.40;;;;;;;23.72;45.98;97187.44;107445;1246;96892;-83
2023/10/03 15:00:28;;;;;;;20.90;9.50;;;;;;;23.60;45.86;97187.52;107761;1241;97396;-81
2023/10/03 15:02:55;;;;;;;18.40;9.50;;;;;;;23.54;45.76;97184.83;107790;1235;96808;-84
2023/10/03 15:05:23;;;;;;;19.70;9.40;;;;;;;23.55;46.05;97178.39;107367;1250;96717;-84
2023/10/03 15:07:49;;;;;;;15.80;8.90;;;;;;;23.56;45.47;97174.20;107814;1248;97807;-86
2023/10/03 15:10:16;;;;;;;15.60;9.00;;;;;;;23.55;45.36;97171.80;107751;1247;97505;-87
2023/10/03 15:12:42;;;;;;;16.60;8.90;;;;;;;23.50;45.47;97176.27;107742;1249;96557;-81
2023/10/03 15:15:08;;;;;;;17.80;9.70;;;;;;;23.46;45.35;97171.02;107652;1243;96608;-79
2023/10/03 15:17:35;;;;;;;16.60;9.00;;;;;;;23.44;45.53;97164.94;107696;1242;97058;-79
2023/10/03 15:20:05;;;;;;;16.80;9.00;;;;;;;23.40;45.32;97164.14;107913;1240;96641;-78
2023/10/03 15:22:32;;;;;;;19.00;10.40;;;;;;;23.37;45.36;97176.08;107925;1240;100218;-78
2023/10/03 15:24:59;;;;;;;18.20;11.50;;;;;;;23.34;45.37;97179.85;107836;1240;96640;-78
2023/10/03 15:27:26;;;;;;;17.30;8.90;;;;;;;23.28;45.46;97183.48;107850;1248;96660;-78
2023/10/03 15:29:53;;;;;;;17.30;9.80;;;;;;;23.19;45.31;97185.42;107867;1249;97089;-79
2023/10/03 15:32:19;;;;;;;16.60;8.50;;;;;;;23.12;45.50;97185.59;107948;1240;96580;-79
2023/10/03 15:34:45;;;;;;;14.70;8.20;;;;;;;23.08;45.54;97181.67;107863;1250;100220;-78
2023/10/03 15:37:12;;;;;;;21.30;12.10;;;;;;;23.06;45.71;97181.61;107852;1240;96614;-78
2023/10/03 15:39:39;;;;;;;20.40;10.80;;;;;;;22.97;45.64;97178.80;107682;1236;98215;-78
2023/10/03 15:42:05;;;;;;;16.60;9.50;;;;;;;22.91;45.64;97179.42;107852;1250;97477;-77
2023/10/03 15:44:32;;;;;;;14.90;9.10;;;;;;;22.82;45.64;97175.42;107923;1240;96680;-78
2023/10/03 15:46:58;;;;;;;14.00;8.20;;;;;;;22.72;45.72;97168.88;107843;1235;96577;-80
2023/10/03 15:49:24;;;;;;;15.40;8.40;;;;;;;22.67;45.97;97172.46;107882;1250;97465;-81
2023/10/03 15:51:51;;;;;;;16.10;7.70;;;;;;;22.58;45.98;97171.91;107742;1243;97766;-82
2023/10/03 15:54:17;;;;;;;15.30;8.70;;;;;;;22.54;46.13;97177.08;107828;1244;97493;-80
2023/10/03 15:56:44;;;;;;;14.40;7.30;;;;;;;22.49;46.00;97177.40;107695;1241;96576;-80
2023/10/03 15:59:12;;;;;;;16.40;8.40;;;;;;;22.44;45.96;97174.55;107733;1241;96490;-81
2023/10/03 16:01:39;;;;;;;14.00;8.40;;;;;;;22.39;46.24;97170.55;107538;1249;101034;-80
2023/10/03 16:04:05;;;;;;;15.00;8.50;;;;;;;22.30;46.49;97169.11;107695;1240;97506;-81
2023/10/03 16:06:32;;;;;;;16.60;8.70;;;;;;;22.21;46.93;97175.38;107719;1240;97169;-81
2023/10/03 16:08:59;;;;;;;15.20;7.90;;;;;;;22.13;47.16;97177.86;107711;1242;96644;-81
2023/10/03 16:11:26;;;;;;;16.00;8.40;;;;;;;22.06;47.90;97186.08;107806;1235;97119;-82
2023/10/03 16:13:52;;;;;;;15.70;8.30;;;;;;;21.94;48.16;97185.29;107729;1247;101566;-82
2023/10/03 16:16:18;;;;;;;16.30;9.30;;;;;;;21.81;48.49;97188.20;107634;1242;96650;-82
2023/10/03 16:18:46;;;;;;;15.30;8.50;;;;;;;21.66;48.68;97182.96;107736;1250;97807;-81
2023/10/03 16:21:13;;;;;;;16.90;9.10;;;;;;;21.57;49.40;97186.33;107740;1241;97208;-81
2023/10/03 16:23:39;;;;;;;35.40;25.80;;;;;;;21.46;49.80;97190.20;107767;1249;96566;-82
2023/10/03 16:26:06;;;;;;;30.00;19.00;;;;;;;21.35;50.07;97185.73;107784;1247;97478;-82
2023/10/03 16:28:32;;;;;;;22.20;13.70;;;;;;;21.18;50.37;97183.67;107701;1243;96803;-81
2023/10/03 16:30:59;;;;;;;23.20;10.40;;;;;;;20.99;50.36;97185.48;107584;1246;96663;-82
2023/10/03 16:33:25;;;;;;;24.60;16.10;;;;;;;20.82;51.04;97186.23;107744;1241;97446;-83
2023/10/03 16:35:51;;;;;;;26.70;16.20;;;;;;;20.77;51.63;97192.84;107794;1249;97473;-82
2023/10/03 16:38:17;;;;;;;24.20;15.90;;;;;;;20.68;51.33;97194.26;107727;1235;97704;-83
2023/10/03 16:40:44;;;;;;;34.60;20.70;;;;;;;20.63;51.66;97194.29;107774;1240;97495;-82
2023/10/03 16:43:11;;;;;;;32.20;19.80;;;;;;;20.56;52.14;97193.31;107702;1243;97015;-83
2023/10/03 16:45:38;;;;;;;29.30;16.00;;;;;;;20.46;52.42;97194.34;107712;1246;96569;-78
2023/10/03 16:48:07;;;;;;;83.80;59.60;;;;;;;20.36;52.94;97198.25;107734;1246;97491;-78
2023/10/03 16:50:37;;;;;;;44.90;31.70;;;;;;;20.23;53.16;97198.70;107816;1235;97738;-78
2023/10/03 16:53:03;;;;;;;45.60;32.10;;;;;;;20.09;53.43;97196.28;107822;1244;102131;-78
2023/10/03 16:55:30;;;;;;;38.00;25.10;;;;;;;19.99;53.77;97197.39;107729;1247;97472;-75
2023/10/03 16:57:56;;;;;;;30.60;20.20;;;;;;;19.92;53.95;97192.85;107726;1247;96575;-75
2023/10/03 17:00:22;;;;;;;29.00;16.70;;;;;;;19.84;53.96;97194.62;107798;1248;97790;-75
2023/10/03 17:02:49;;;;;;;28.50;17.20;;;;;;;19.81;53.99;97200.80;107706;1240;102262;-75
2023/10/03 17:05:16;;;;;;;20.50;13.20;;;;;;;19.71;54.21;97200.60;107760;1248;96775;-75
2023/10/03 17:07:44;;;;;;;22.90;12.50;;;;;;;19.62;54.88;97195.56;107546;1250;97812;-75
2023/10/03 17:10:15;;;;;;;20.50;11.00;;;;;;;19.55;55.08;97201.03;107913;1240;96567;-76
2023/10/03 17:12:41;;;;;;;21.90;11.00;;;;;;;19.50;55.03;97203.48;107596;1235;97064;-76
2023/10/03 17:15:09;;;;;;;18.80;10.10;;;;;;;19.40;55.15;97195.46;107652;1241;96676;-77
2023/10/03 17:17:41;;;;;;;17.30;10.50;;;;;;;19.31;55.62;97194.27;107670;1240;96663;-82
2023/10/03 17:20:11;;;;;;;16.90;9.40;;;;;;;19.26;56.09;97193.59;108115;1239;98291;-82
2023/10/03 17:22:40;;;;;;;20.30;9.30;;;;;;;19.22;56.36;97192.16;107620;1235;97129;-82
2023/10/03 17:25:09;;;;;;;16.50;9.20;;;;;;;19.11;56.39;97189.91;107664;1245;97019;-81
2023/10/03 17:27:38;;;;;;;15.30;8.90;;;;;;;18.98;56.55;97191.67;107584;1241;102297;-80
2023/10/03 17:30:08;;;;;;;16.70;8.60;;;;;;;18.92;56.92;97193.37;107257;1246;100239;-82
2023/10/03 17:32:34;;;;;;;16.10;8.90;;;;;;;18.84;57.16;97190.06;107584;1240;99960;-81
2023/10/03 17:35:09;;;;;;;17.30;9.10;;;;;;;18.75;57.28;97188.98;107750;1240;97125;-81
2023/10/03 17:37:38;;;;;;;13.70;7.70;;;;;;;18.69;57.59;97186.67;107757;1240;97031;-79
2023/10/03 17:40:12;;;;;;;13.50;8.10;;;;;;;18.62;57.52;97188.61;107412;1243;100994;-81
2023/10/03 17:42:44;;;;;;;17.10;8.50;;;;;;;18.56;57.55;97194.33;107687;1240;101538;-82
2023/10/03 17:45:12;;;;;;;14.70;8.60;;;;;;;18.54;57.76;97193.43;107758;1250;98818;-83
2023/10/03 17:47:39;;;;;;;16.20;8.30;;;;;;;18.53;57.95;97188.00;107559;1250;97336;-75
2023/10/03 17:50:12;;;;;;;16.70;7.90;;;;;;;18.50;58.19;97186.89;107572;1248;96539;-75
2023/10/03 17:52:40;;;;;;;13.30;7.70;;;;;;;18.38;58.54;97191.05;107819;1241;101163;-76
2023/10/03 17:55:08;;;;;;;14.90;7.90;;;;;;;18.28;58.66;97195.59;107545;1240;101562;-76
2023/10/03 17:57:35;;;;;;;17.50;8.60;;;;;;;18.22;58.94;97196.49;107759;1240;99868;-75
2023/10/03 18:00:12;;;;;;;15.80;8.30;;;;;;;18.19;59.23;97194.08;107225;1244;96690;-75
2023/10/03 18:02:41;;;;;;;18.00;8.30;;;;;;;18.14;59.36;97190.83;107678;1241;97067;-76
2023/10/03 18:05:11;;;;;;;17.10;7.90;;;;;;;18.11;59.50;97184.85;107714;1235;100883;-76
2023/10/03 18:07:40;;;;;;;16.10;8.30;;;;;;;18.10;59.73;97185.24;107489;1236;101584;-75
2023/10/03 18:10:09;;;;;;;17.70;8.00;;;;;;;18.08;59.84;97182.05;107563;1240;98844;-76
2023/10/03 18:12:43;;;;;;;17.80;8.30;;;;;;;18.01;59.88;97181.52;107581;1244;96643;-76
2023/10/03 18:15:20;;;;;;;16.40;7.90;;;;;;;17.93;60.13;97179.17;107839;1240;97359;-83
2023/10/03 18:18:07;;;;;;;16.10;8.40;;;;;;;17.83;60.23;97183.97;108132;1241;110600;-82
2023/10/03 18:20:34;;;;;;;15.10;8.20;;;;;;;17.80;60.49;97182.15;107807;1235;101440;-82
2023/10/03 18:23:01;;;;;;;12.20;7.40;;;;;;;17.80;60.46;97182.80;107783;1239;97122;-81
2023/10/03 18:25:27;;;;;;;13.40;8.10;;;;;;;17.81;60.53;97183.52;107581;1243;97531;-75
2023/10/03 18:27:53;;;;;;;15.30;7.50;;;;;;;17.81;60.53;97175.34;107771;1241;96530;-75
2023/10/03 18:30:20;;;;;;;13.40;7.90;;;;;;;17.78;60.62;97171.59;107765;1240;100866;-79
2023/10/03 18:32:47;;;;;;;12.80;7.90;;;;;;;17.75;60.80;97176.88;107651;1235;96557;-78
2023/10/03 18:35:13;;;;;;;11.80;7.30;;;;;;;17.70;60.87;97175.14;107696;1241;97800;-82
2023/10/03 18:37:41;;;;;;;14.70;7.00;;;;;;;17.66;60.91;97171.17;107787;1241;97835;-81
2023/10/03 18:40:10;;;;;;;15.60;7.10;;;;;;;17.69;60.77;97174.20;107755;1239;100199;-80
2023/10/03 18:42:37;;;;;;;12.90;6.60;;;;;;;17.78;60.71;97166.20;106972;1250;99751;-79
2023/10/03 18:45:04;;;;;;;12.90;6.90;;;;;;;17.93;60.82;97166.63;107458;1241;97584;-79
2023/10/03 18:47:31;;;;;;;13.70;6.80;;;;;;;18.00;60.87;97170.31;107647;1247;96579;-79
2023/10/03 18:49:58;;;;;;;13.60;7.20;;;;;;;17.98;60.98;97166.55;107627;1241;97462;-80
2023/10/03 18:52:24;;;;;;;14.10;7.30;;;;;;;17.94;61.01;97169.52;107560;1247;96570;-79
2023/10/03 18:54:51;;;;;;;17.20;7.20;;;;;;;17.90;60.91;97168.13;107707;1249;96571;-80
2023/10/03 18:57:19;;;;;;;10.40;5.80;;;;;;;17.95;61.01;97162.54;107445;1250;96634;-79
2023/10/03 18:59:46;;;;;;;14.70;6.50;;;;;;;17.98;61.12;97162.99;107254;1244;97902;-80
2023/10/03 19:02:12;;;;;;;14.80;6.80;;;;;;;17.98;61.24;97159.08;107633;1248;96810;-79
2023/10/03 19:04:39;;;;;;;13.40;7.10;;;;;;;17.96;61.28;97157.35;107687;1245;97822;-75
2023/10/03 19:07:05;;;;;;;11.00;6.60;;;;;;;17.94;61.26;97154.88;107762;1241;97785;-75
2023/10/03 19:09:31;;;;;;;12.00;7.70;;;;;;;17.94;61.19;97160.50;107668;1237;102199;-74
2023/10/03 19:11:58;;;;;;;12.90;6.50;;;;;;;17.93;61.43;97154.70;107698;1243;96664;-75
2023/10/03 19:14:25;;;;;;;15.80;6.70;;;;;;;17.91;61.43;97153.00;107594;1243;96916;-75